Sturgeon Bay, WI

6:51 AM CST on December 25, 2014 (GMT -0600)
Austin Straubel International | Change Station
CLOSE
Current Station
Airport
Location: Green Bay,
Elevation: 686 ft
Nearby Weather Stations

Elev 686 ft 44.48 °N, 88.14 °W | Updated 29 minutes ago

Clear
Clear
34 °F
Feels Like 27 °F
N
9
Wind Variable Wind from SW

Today
High -- | Low -- °F
--% Chance of Precip.
Yesterday
High -- | Low -- °F
Precip. -- in
7:25 AM 4:13 PM
Waxing Crescent, 16% visible
Pressure 29.71 in
Visibility 10.0 miles
Clouds Overcast 2800 ft
Windchill 27 °F
Dew Point 30 °F
Humidity 85%
Rainfall 0.00 in
Snow Depth Not available.
UV 0 out of 12
Pollen .10 out of 12
Air Quality Not available.
Flu Activity Not available.
SPECI KGRB 251222Z 23008KT 10SM OVC028 01/M01 A2971 RMK AO2 T00111011

More Conditions Fewer Conditions

Pressure 29.71 in
Visibility 10.0 miles
Clouds Overcast 2800 ft
Windchill 27 °F
Dew Point 30 °F
Humidity 85%
Rainfall 0.00 in
Snow Depth Not available.
UV 0 out of 12
Pollen .10 out of 12
Air Quality Not available.
Flu Activity Not available.
SPECI KGRB 251222Z 23008KT 10SM OVC028 01/M01 A2971 RMK AO2 T00111011

More Conditions Fewer Conditions

Nowcast | as of 5:43 am CST on December 25, 2014

watch out for slick roads and sidewalks this morning... Moist air and temperatures near the freezing point has produced areas of slippery roads in northern and central Wisconsin. The refreezing of melted snow will also produce slippery conditions.

×

10-Day Weather Forecast

Almanac

Astronomy

Dec. 25, 2014 Rise Set
Actual Time
Civil Twilight
Nautical Twilight
Astronomical Twilight
Moon
Length of Visible Light
Length of Day
Tomorrow will be .
, % of the Moon is Illuminated

Today's Extremes

State Highs State Lows

Community

WunderPhotos

Upload Photos

1,780,266 photos uploaded!

WunderBlogs® & News

Nearby

Air Quality

  Air Quality AQ Index Pollutant
Not available.

Snow Depth

Station Depth Elevation

Earthquake Activity

City Distance Mag. Time & Date
Minimum magnitude displayed is 2.5.

Coastal Water Temperatures

Place Temperature

Nearby Weather Stations